Salamis Filoxenia — 5BUY2 — position and weather

sailwx.info

Track history (hours):
 
Tides and Currents Weather Stations Pressure Air Temp Water Temp Dewpoint Dewpoint Depression Visibility Wind Speed Wind Dir Waves Ship Positions

Salamis Filoxenia

Last reported at 2015-Sep-05 00:33 UTC. Time now 2015-Sep-05 01:12 UTC.
Position N 36°32' E 027°07'.

Length 157 m; draft 6.2 m.

Type: Passenger vessel. MMSI: 209167000.

Date/timePositionNaut miles runAvg speedWind from/ knotsBaromVisibWave heightAir tempDewpointWater temp
2015-Sep-05 00:33N 36°32' E 027°07'1413.1
2015-Sep-04 23:29N 36°39' E 026°51'1313.3
2015-Sep-04 22:31N 36°45' E 026°37'1414.0
2015-Sep-04 21:31N 36°53' E 026°23'1414.1
2015-Sep-04 20:33N 36°60' E 026°08'1414.2
2015-Sep-04 19:33N 37°07' E 025°53'1414.3
2015-Sep-04 18:33N 37°13' E 025°36'1414.1
2015-Sep-04 17:33N 37°18' E 025°20'1414.2
2015-Sep-04 16:33N 37°23' E 025°03'6 6.1
2015-Sep-04 15:33N 37°26' E 024°57'0 0.0
2015-Sep-04 14:33N 37°26' E 024°57'0 0.0
2015-Sep-04 13:33N 37°26' E 024°57'0 0.0
2015-Sep-04 12:33N 37°26' E 024°57'0 0.0
2015-Sep-04 11:32N 37°26' E 024°57'0 0.0
2015-Sep-04 10:33N 37°26' E 024°57'0 0.0
2015-Sep-04 09:33N 37°26' E 024°57'0 0.0
2015-Sep-04 08:33N 37°26' E 024°57'0 0.0
2015-Sep-04 07:33N 37°26' E 024°57'0 0.0
2015-Sep-04 06:33N 37°26' E 024°57'0 0.0
2015-Sep-04 05:33N 37°26' E 024°57'0 0.1
2015-Sep-04 04:33N 37°26' E 024°57'9 8.8
2015-Sep-04 03:33N 37°23' E 025°07'1111.1
2015-Sep-04 02:33N 37°19' E 025°20'1211.4
2015-Sep-04 01:33N 37°16' E 025°34'1211.7
2015-Sep-04 00:33N 37°12' E 025°47'1211.8
2015-Sep-03 23:33N 37°09' E 026°02'1311.8
2015-Sep-03 22:26N 37°06' E 026°18'1011.7
2015-Sep-03 21:33N 37°03' E 026°30'1312.1
2015-Sep-03 20:31N 36°59' E 026°45'1211.9
2015-Sep-03 19:33N 36°55' E 026°59'5 0.6
2015-Sep-03 11:07N 36°55' E 027°05'28714.5
2015-Sep-02 15:19N 34°43' E 032°18'1114.8
2015-Sep-02 14:33N 34°39' E 032°31'1514.7
2015-Sep-02 13:33N 34°34' E 032°48'1312.9
2015-Sep-02 12:34N 34°34' E 033°04'5 5.5
2015-Sep-02 11:33N 34°39' E 033°01'0 0.0
2015-Sep-02 10:33N 34°39' E 033°01'0 0.0
2015-Sep-02 09:33N 34°39' E 033°01'0 0.0
2015-Sep-02 08:33N 34°39' E 033°01'0 0.0
2015-Sep-02 07:33N 34°39' E 033°01'0 0.0
2015-Sep-02 06:33N 34°39' E 033°01'0 0.0
2015-Sep-02 05:33N 34°39' E 033°01'0 0.0
2015-Sep-02 04:33N 34°39' E 033°01'1 0.9
2015-Sep-02 03:33N 34°39' E 033°02'1413.8
2015-Sep-02 02:33N 34°29' E 033°13'1514.7
2015-Sep-02 01:34N 34°18' E 033°25'1414.4
2015-Sep-02 00:34N 34°07' E 033°36'1414.3
2015-Sep-01 23:33N 33°57' E 033°49'1614.6
2015-Sep-01 22:28N 33°45' E 034°01'1314.7
2015-Sep-01 21:33N 33°36' E 034°13'1414.5
2015-Sep-01 20:33N 33°24' E 034°23'1514.9
2015-Sep-01 19:33N 33°10' E 034°31'1514.8
2015-Sep-01 18:33N 32°59' E 034°42'18 4.3
2015-Sep-01 14:20N 32°49' E 035°00'0 0.0
2015-Sep-01 13:12N 32°49' E 035°00'0 0.0
2015-Sep-01 10:03N 32°49' E 035°00'42 3.9
2015-Aug-31 23:08N 33°18' E 034°23'813.3
2015-Aug-31 22:33N 33°24' E 034°17'1313.0
2015-Aug-31 21:33N 33°34' E 034°07'1312.9
2015-Aug-31 20:33N 33°44' E 033°58'1313.0
2015-Aug-31 19:33N 33°54' E 033°48'1313.1
2015-Aug-31 18:33N 34°04' E 033°38'1413.4
2015-Aug-31 17:32N 34°15' E 033°28'1713.5
2015-Aug-31 16:17N 34°27' E 033°14'1013.3
2015-Aug-31 15:34N 34°35' E 033°07'6 6.3
2015-Aug-31 14:33N 34°39' E 033°01'0 0.0
2015-Aug-31 13:33N 34°39' E 033°01'0 0.0
2015-Aug-31 12:33N 34°39' E 033°01'0 0.0
2015-Aug-31 11:34N 34°39' E 033°01'0 0.0
2015-Aug-31 10:34N 34°39' E 033°01'0 0.0
2015-Aug-31 09:33N 34°39' E 033°01'0 0.0
2015-Aug-31 08:33N 34°39' E 033°01'0 0.1
2015-Aug-31 07:33N 34°39' E 033°01'8 7.8
2015-Aug-31 06:34N 34°32' E 032°57'1414.1
2015-Aug-31 05:33N 34°36' E 032°41'23510.6
2015-Aug-30 07:31N 35°41' E 028°05'77 3.9
2015-Aug-29 11:33N 35°18' E 026°35'2114.3
2015-Aug-29 10:06N 35°15' E 026°60'2314.8
2015-Aug-29 08:33N 35°12' E 027°28'18514.8
2015-Aug-28 20:05N 34°45' E 031°11'1215.0
2015-Aug-28 19:16N 34°43' E 031°25'1114.8
2015-Aug-28 18:34N 34°41' E 031°38'4614.8
2015-Aug-28 15:25N 34°35' E 032°34'1315.1
2015-Aug-28 14:34N 34°33' E 032°49'1212.2
2015-Aug-28 13:33N 34°37' E 033°03'3 3.4
2015-Aug-28 12:34N 34°39' E 033°01'0 0.0
2015-Aug-28 11:33N 34°39' E 033°01'0 0.0
2015-Aug-28 10:34N 34°39' E 033°01'0 0.0
2015-Aug-28 09:32N 34°39' E 033°01'0 0.0
2015-Aug-28 08:33N 34°39' E 033°01'0 0.3
2015-Aug-28 07:29N 34°39' E 033°01'8 8.2
2015-Aug-28 06:34N 34°32' E 032°58'7113.5
2015-Aug-28 01:17N 35°01' E 031°39'1013.8
2015-Aug-28 00:33N 35°05' E 031°28'1413.8
2015-Aug-27 23:33N 35°12' E 031°13'5813.7
2015-Aug-27 19:20N 35°38' E 030°10'190 9.1
2015-Aug-26 22:28N 36°30' E 026°24'1414.4
2015-Aug-26 21:31N 36°31' E 026°07'1414.9
2015-Aug-26 20:34N 36°37' E 025°51'1615.4
2015-Aug-26 19:32N 36°45' E 025°33'1813.5
2015-Aug-26 18:10N 36°59' E 025°19'915.0
2015-Aug-26 17:33N 37°08' E 025°19'1515.0
2015-Aug-26 16:34N 37°22' E 025°11'1413.9
2015-Aug-26 15:33N 37°34' E 025°03'12 0.9
2015-Aug-26 02:33N 37°42' E 024°51'1212.2
2015-Aug-26 01:33N 37°33' E 025°00'1212.4
2015-Aug-26 00:33N 37°23' E 025°10'  
Track history (hours):
 
Tides and Currents Weather Stations Pressure Air Temp Water Temp Dewpoint Dewpoint Depression Visibility Wind Speed Wind Dir Waves Ship Positions

Salamis Filoxenia

Last reported at 2015-Sep-05 00:33 UTC. Time now 2015-Sep-05 01:12 UTC.
Position N 36°32' E 027°07'.

Length 157 m; draft 6.2 m.

Type: Passenger vessel. MMSI: 209167000.

Date/timePositionNaut miles runAvg speedWind from/ knotsBaromVisibWave heightAir tempDewpointWater temp
2015-Sep-05 00:33N 36°32' E 027°07'1413.1
2015-Sep-04 23:29N 36°39' E 026°51'1313.3
2015-Sep-04 22:31N 36°45' E 026°37'1414.0
2015-Sep-04 21:31N 36°53' E 026°23'1414.1
2015-Sep-04 20:33N 36°60' E 026°08'1414.2
2015-Sep-04 19:33N 37°07' E 025°53'1414.3
2015-Sep-04 18:33N 37°13' E 025°36'1414.1
2015-Sep-04 17:33N 37°18' E 025°20'1414.2
2015-Sep-04 16:33N 37°23' E 025°03'6 6.1
2015-Sep-04 15:33N 37°26' E 024°57'0 0.0
2015-Sep-04 14:33N 37°26' E 024°57'0 0.0
2015-Sep-04 13:33N 37°26' E 024°57'0 0.0
2015-Sep-04 12:33N 37°26' E 024°57'0 0.0
2015-Sep-04 11:32N 37°26' E 024°57'0 0.0
2015-Sep-04 10:33N 37°26' E 024°57'0 0.0
2015-Sep-04 09:33N 37°26' E 024°57'0 0.0
2015-Sep-04 08:33N 37°26' E 024°57'0 0.0
2015-Sep-04 07:33N 37°26' E 024°57'0 0.0
2015-Sep-04 06:33N 37°26' E 024°57'0 0.0
2015-Sep-04 05:33N 37°26' E 024°57'0 0.1
2015-Sep-04 04:33N 37°26' E 024°57'9 8.8
2015-Sep-04 03:33N 37°23' E 025°07'1111.1
2015-Sep-04 02:33N 37°19' E 025°20'1211.4
2015-Sep-04 01:33N 37°16' E 025°34'1211.7
2015-Sep-04 00:33N 37°12' E 025°47'1211.8
2015-Sep-03 23:33N 37°09' E 026°02'1311.8
2015-Sep-03 22:26N 37°06' E 026°18'1011.7
2015-Sep-03 21:33N 37°03' E 026°30'1312.1
2015-Sep-03 20:31N 36°59' E 026°45'1211.9
2015-Sep-03 19:33N 36°55' E 026°59'5 0.6
2015-Sep-03 11:07N 36°55' E 027°05'28714.5
2015-Sep-02 15:19N 34°43' E 032°18'1114.8
2015-Sep-02 14:33N 34°39' E 032°31'1514.7
2015-Sep-02 13:33N 34°34' E 032°48'1312.9
2015-Sep-02 12:34N 34°34' E 033°04'5 5.5
2015-Sep-02 11:33N 34°39' E 033°01'0 0.0
2015-Sep-02 10:33N 34°39' E 033°01'0 0.0
2015-Sep-02 09:33N 34°39' E 033°01'0 0.0
2015-Sep-02 08:33N 34°39' E 033°01'0 0.0
2015-Sep-02 07:33N 34°39' E 033°01'0 0.0
2015-Sep-02 06:33N 34°39' E 033°01'0 0.0
2015-Sep-02 05:33N 34°39' E 033°01'0 0.0
2015-Sep-02 04:33N 34°39' E 033°01'1 0.9
2015-Sep-02 03:33N 34°39' E 033°02'1413.8
2015-Sep-02 02:33N 34°29' E 033°13'1514.7
2015-Sep-02 01:34N 34°18' E 033°25'1414.4
2015-Sep-02 00:34N 34°07' E 033°36'1414.3
2015-Sep-01 23:33N 33°57' E 033°49'1614.6
2015-Sep-01 22:28N 33°45' E 034°01'1314.7
2015-Sep-01 21:33N 33°36' E 034°13'1414.5
2015-Sep-01 20:33N 33°24' E 034°23'1514.9
2015-Sep-01 19:33N 33°10' E 034°31'1514.8
2015-Sep-01 18:33N 32°59' E 034°42'18 4.3
2015-Sep-01 14:20N 32°49' E 035°00'0 0.0
2015-Sep-01 13:12N 32°49' E 035°00'0 0.0
2015-Sep-01 10:03N 32°49' E 035°00'42 3.9
2015-Aug-31 23:08N 33°18' E 034°23'813.3
2015-Aug-31 22:33N 33°24' E 034°17'1313.0
2015-Aug-31 21:33N 33°34' E 034°07'1312.9
2015-Aug-31 20:33N 33°44' E 033°58'1313.0
2015-Aug-31 19:33N 33°54' E 033°48'1313.1
2015-Aug-31 18:33N 34°04' E 033°38'1413.4
2015-Aug-31 17:32N 34°15' E 033°28'1713.5
2015-Aug-31 16:17N 34°27' E 033°14'1013.3
2015-Aug-31 15:34N 34°35' E 033°07'6 6.3
2015-Aug-31 14:33N 34°39' E 033°01'0 0.0
2015-Aug-31 13:33N 34°39' E 033°01'0 0.0
2015-Aug-31 12:33N 34°39' E 033°01'0 0.0
2015-Aug-31 11:34N 34°39' E 033°01'0 0.0
2015-Aug-31 10:34N 34°39' E 033°01'0 0.0
2015-Aug-31 09:33N 34°39' E 033°01'0 0.0
2015-Aug-31 08:33N 34°39' E 033°01'0 0.1
2015-Aug-31 07:33N 34°39' E 033°01'8 7.8
2015-Aug-31 06:34N 34°32' E 032°57'1414.1
2015-Aug-31 05:33N 34°36' E 032°41'23510.6
2015-Aug-30 07:31N 35°41' E 028°05'77 3.9
2015-Aug-29 11:33N 35°18' E 026°35'2114.3
2015-Aug-29 10:06N 35°15' E 026°60'2314.8
2015-Aug-29 08:33N 35°12' E 027°28'18514.8
2015-Aug-28 20:05N 34°45' E 031°11'1215.0
2015-Aug-28 19:16N 34°43' E 031°25'1114.8
2015-Aug-28 18:34N 34°41' E 031°38'4614.8
2015-Aug-28 15:25N 34°35' E 032°34'1315.1
2015-Aug-28 14:34N 34°33' E 032°49'1212.2
2015-Aug-28 13:33N 34°37' E 033°03'3 3.4
2015-Aug-28 12:34N 34°39' E 033°01'0 0.0
2015-Aug-28 11:33N 34°39' E 033°01'0 0.0
2015-Aug-28 10:34N 34°39' E 033°01'0 0.0
2015-Aug-28 09:32N 34°39' E 033°01'0 0.0
2015-Aug-28 08:33N 34°39' E 033°01'0 0.3
2015-Aug-28 07:29N 34°39' E 033°01'8 8.2
2015-Aug-28 06:34N 34°32' E 032°58'7113.5
2015-Aug-28 01:17N 35°01' E 031°39'1013.8
2015-Aug-28 00:33N 35°05' E 031°28'1413.8
2015-Aug-27 23:33N 35°12' E 031°13'5813.7
2015-Aug-27 19:20N 35°38' E 030°10'190 9.1
2015-Aug-26 22:28N 36°30' E 026°24'1414.4
2015-Aug-26 21:31N 36°31' E 026°07'1414.9
2015-Aug-26 20:34N 36°37' E 025°51'1615.4
2015-Aug-26 19:32N 36°45' E 025°33'1813.5
2015-Aug-26 18:10N 36°59' E 025°19'915.0
2015-Aug-26 17:33N 37°08' E 025°19'1515.0
2015-Aug-26 16:34N 37°22' E 025°11'1413.9
2015-Aug-26 15:33N 37°34' E 025°03'12 0.9
2015-Aug-26 02:33N 37°42' E 024°51'1212.2
2015-Aug-26 01:33N 37°33' E 025°00'1212.4
2015-Aug-26 00:33N 37°23' E 025°10'  

Dump ship's entire track history